Flugplatz Wiener Neustadt/Ost (LOAN)

Hier findest Du alle Informationen zum Flugplatz Wiener Neustadt/Ost (LOAN).

Informationen für Piloten zum Flugplatz Wiener Neustadt/Ost

Hier findest Du alle relevanten Informationen, die Du als Pilot benötigst, um Wiener Neustadt/Ost anzufliegen.

Flugplatz: Wiener Neustadt/Ost ICAO-Code: LOAN
Frequenz Turm: 122,650 Mhz GAFOR Gebiet: -
Frequenz Ground: 122,650 Mhz Mogas: nein
Platzrunde: N 1500 ft Landegebühr: -
Platzhöhe: Sunrise: 05:27 Uhr UTC
Pisten: 10/28 - 1067 m x 23 m, ASPH Sunset: 16:45 Uhr UTC

Flugwetter am Flugplatz Wiener Neustadt/Ost

Die METAR Information stammen aus EDDM (336.60 km entfernt).

METAR Code:
2021/02/18 22:50
EDDM 182250Z 27005G15KT CAVOK 03/02 Q1016 NOSIG

Flugschulen am Flugplatz Wiener Neustadt/Ost

Am Flugplatz Wiener Neustadt/Ost gibt es leider keine Flugschule.

Benachbarte Flugplätze und Flugschulen

Es gibt einen weiteren Flugplatz in einem Umkreis von 50 km um den Flugplatz Wiener Neustadt/Ost.

Flugplatz Vöslau LOAV 13.52 km
Jetzt anmelden

Passwort vergessen

Umfrage Archiv

Seid Ihr aufgrund von Corona im Jahr 2020 mehr oder weniger geflogen als im Jahr zuvor?

weniger
52.6 %
gleich viel
28.9 %
mehr
18.4 %
Stimmen: 114 | Diskussion
Anzeige: Roland Aircraft
Statistik Alle Mitglieder

Aktuell sind 40 Besucher online.

Anzeige: VFR Sprechfunk Simulator


Anzeige: Pocket FMS